sensor_id;sensor_type;location;lat;lon;timestamp;P1;durP1;ratioP1;P2;durP2;ratioP2
19084;SDS011;9675;51.538;6.728;2023-05-07T00:02:19;4.63;;;2.67;;
19084;SDS011;9675;51.538;6.728;2023-05-07T00:04:47;3.97;;;1.87;;
19084;SDS011;9675;51.538;6.728;2023-05-07T00:07:15;3.60;;;2.00;;
19084;SDS011;9675;51.538;6.728;2023-05-07T00:09:42;3.63;;;1.97;;
19084;SDS011;9675;51.538;6.728;2023-05-07T00:12:09;2.77;;;1.87;;
19084;SDS011;9675;51.538;6.728;2023-05-07T00:14:36;4.47;;;2.23;;
19084;SDS011;9675;51.538;6.728;2023-05-07T00:17:03;6.37;;;1.90;;
19084;SDS011;9675;51.538;6.728;2023-05-07T00:19:32;4.03;;;2.00;;
19084;SDS011;9675;51.538;6.728;2023-05-07T00:21:59;4.23;;;2.23;;
19084;SDS011;9675;51.538;6.728;2023-05-07T00:24:26;4.00;;;2.97;;
19084;SDS011;9675;51.538;6.728;2023-05-07T00:26:53;4.73;;;2.37;;
19084;SDS011;9675;51.538;6.728;2023-05-07T00:29:20;3.57;;;2.47;;
19084;SDS011;9675;51.538;6.728;2023-05-07T00:31:48;2.97;;;2.07;;
19084;SDS011;9675;51.538;6.728;2023-05-07T00:34:16;4.93;;;2.50;;
19084;SDS011;9675;51.538;6.728;2023-05-07T00:36:44;3.97;;;2.37;;
19084;SDS011;9675;51.538;6.728;2023-05-07T00:39:11;4.60;;;2.47;;
19084;SDS011;9675;51.538;6.728;2023-05-07T00:41:38;4.27;;;2.73;;
19084;SDS011;9675;51.538;6.728;2023-05-07T00:44:05;3.87;;;2.47;;
19084;SDS011;9675;51.538;6.728;2023-05-07T00:46:33;3.73;;;2.23;;
19084;SDS011;9675;51.538;6.728;2023-05-07T00:49:00;4.77;;;2.13;;
19084;SDS011;9675;51.538;6.728;2023-05-07T00:51:28;2.30;;;1.50;;
19084;SDS011;9675;51.538;6.728;2023-05-07T00:53:57;4.13;;;2.77;;
19084;SDS011;9675;51.538;6.728;2023-05-07T00:56:25;5.13;;;2.37;;
19084;SDS011;9675;51.538;6.728;2023-05-07T00:58:53;4.17;;;2.97;;
19084;SDS011;9675;51.538;6.728;2023-05-07T01:01:21;4.43;;;2.20;;
19084;SDS011;9675;51.538;6.728;2023-05-07T01:03:48;4.77;;;3.47;;
19084;SDS011;9675;51.538;6.728;2023-05-07T01:06:15;4.73;;;3.20;;
19084;SDS011;9675;51.538;6.728;2023-05-07T01:08:43;5.27;;;3.63;;
19084;SDS011;9675;51.538;6.728;2023-05-07T01:11:12;3.30;;;2.47;;
19084;SDS011;9675;51.538;6.728;2023-05-07T01:13:40;5.60;;;2.73;;
19084;SDS011;9675;51.538;6.728;2023-05-07T01:16:08;3.87;;;2.40;;
19084;SDS011;9675;51.538;6.728;2023-05-07T01:18:36;3.30;;;2.43;;
19084;SDS011;9675;51.538;6.728;2023-05-07T01:21:04;4.60;;;2.53;;
19084;SDS011;9675;51.538;6.728;2023-05-07T01:23:38;6.00;;;2.83;;
19084;SDS011;9675;51.538;6.728;2023-05-07T01:26:06;4.30;;;2.40;;
19084;SDS011;9675;51.538;6.728;2023-05-07T01:28:33;6.13;;;2.73;;
19084;SDS011;9675;51.538;6.728;2023-05-07T01:31:01;3.93;;;2.17;;
19084;SDS011;9675;51.538;6.728;2023-05-07T01:33:31;4.80;;;2.80;;
19084;SDS011;9675;51.538;6.728;2023-05-07T01:36:02;2.43;;;1.80;;
19084;SDS011;9675;51.538;6.728;2023-05-07T01:38:33;2.50;;;2.03;;
19084;SDS011;9675;51.538;6.728;2023-05-07T01:41:03;4.33;;;2.60;;
19084;SDS011;9675;51.538;6.728;2023-05-07T01:43:31;4.40;;;2.80;;
19084;SDS011;9675;51.538;6.728;2023-05-07T01:45:58;3.70;;;2.07;;
19084;SDS011;9675;51.538;6.728;2023-05-07T01:48:27;2.93;;;2.17;;
19084;SDS011;9675;51.538;6.728;2023-05-07T01:50:55;5.00;;;2.03;;
19084;SDS011;9675;51.538;6.728;2023-05-07T01:53:22;8.63;;;3.70;;
19084;SDS011;9675;51.538;6.728;2023-05-07T01:55:49;3.13;;;2.30;;
19084;SDS011;9675;51.538;6.728;2023-05-07T01:58:18;6.17;;;3.00;;
19084;SDS011;9675;51.538;6.728;2023-05-07T02:00:45;4.13;;;2.50;;
19084;SDS011;9675;51.538;6.728;2023-05-07T02:03:12;2.73;;;2.07;;
19084;SDS011;9675;51.538;6.728;2023-05-07T02:05:39;2.93;;;2.20;;
19084;SDS011;9675;51.538;6.728;2023-05-07T02:08:06;4.70;;;3.20;;
19084;SDS011;9675;51.538;6.728;2023-05-07T02:10:33;4.00;;;2.90;;
19084;SDS011;9675;51.538;6.728;2023-05-07T02:13:01;3.90;;;2.80;;
19084;SDS011;9675;51.538;6.728;2023-05-07T02:15:29;3.77;;;2.93;;
19084;SDS011;9675;51.538;6.728;2023-05-07T02:17:59;4.97;;;2.60;;
19084;SDS011;9675;51.538;6.728;2023-05-07T02:20:28;5.60;;;2.53;;
19084;SDS011;9675;51.538;6.728;2023-05-07T02:22:55;3.00;;;2.27;;
19084;SDS011;9675;51.538;6.728;2023-05-07T02:25:22;3.47;;;2.33;;
19084;SDS011;9675;51.538;6.728;2023-05-07T02:27:49;4.57;;;3.07;;
19084;SDS011;9675;51.538;6.728;2023-05-07T02:30:16;5.80;;;2.43;;
19084;SDS011;9675;51.538;6.728;2023-05-07T02:32:47;4.23;;;2.77;;
19084;SDS011;9675;51.538;6.728;2023-05-07T02:35:14;7.00;;;3.97;;
19084;SDS011;9675;51.538;6.728;2023-05-07T02:37:42;7.40;;;3.87;;
19084;SDS011;9675;51.538;6.728;2023-05-07T02:40:10;5.07;;;2.70;;
19084;SDS011;9675;51.538;6.728;2023-05-07T02:42:38;4.47;;;2.73;;
19084;SDS011;9675;51.538;6.728;2023-05-07T02:45:05;5.97;;;2.73;;
19084;SDS011;9675;51.538;6.728;2023-05-07T02:47:34;4.17;;;3.17;;
19084;SDS011;9675;51.538;6.728;2023-05-07T02:50:02;5.47;;;3.30;;
19084;SDS011;9675;51.538;6.728;2023-05-07T02:52:30;2.53;;;2.23;;
19084;SDS011;9675;51.538;6.728;2023-05-07T02:54:57;5.27;;;3.23;;
19084;SDS011;9675;51.538;6.728;2023-05-07T02:57:24;7.87;;;4.97;;
19084;SDS011;9675;51.538;6.728;2023-05-07T02:59:51;8.27;;;5.40;;
19084;SDS011;9675;51.538;6.728;2023-05-07T03:02:18;6.00;;;3.20;;
19084;SDS011;9675;51.538;6.728;2023-05-07T03:04:45;3.87;;;2.67;;
19084;SDS011;9675;51.538;6.728;2023-05-07T03:07:14;4.23;;;3.07;;
19084;SDS011;9675;51.538;6.728;2023-05-07T03:09:41;4.27;;;2.47;;
19084;SDS011;9675;51.538;6.728;2023-05-07T03:12:08;5.97;;;3.37;;
19084;SDS011;9675;51.538;6.728;2023-05-07T03:14:35;8.27;;;3.40;;
19084;SDS011;9675;51.538;6.728;2023-05-07T03:17:02;6.60;;;3.40;;
19084;SDS011;9675;51.538;6.728;2023-05-07T03:19:29;5.60;;;3.37;;
19084;SDS011;9675;51.538;6.728;2023-05-07T03:21:56;4.77;;;2.73;;
19084;SDS011;9675;51.538;6.728;2023-05-07T03:24:25;6.30;;;4.40;;
19084;SDS011;9675;51.538;6.728;2023-05-07T03:26:52;4.43;;;2.90;;
19084;SDS011;9675;51.538;6.728;2023-05-07T03:29:19;5.27;;;3.60;;
19084;SDS011;9675;51.538;6.728;2023-05-07T03:31:46;4.33;;;2.27;;
19084;SDS011;9675;51.538;6.728;2023-05-07T03:34:13;6.60;;;3.10;;
19084;SDS011;9675;51.538;6.728;2023-05-07T03:36:40;7.60;;;3.40;;
19084;SDS011;9675;51.538;6.728;2023-05-07T03:39:07;5.70;;;3.63;;
19084;SDS011;9675;51.538;6.728;2023-05-07T03:41:35;5.20;;;3.07;;
19084;SDS011;9675;51.538;6.728;2023-05-07T03:44:03;4.80;;;2.87;;
19084;SDS011;9675;51.538;6.728;2023-05-07T03:46:30;4.93;;;3.47;;
19084;SDS011;9675;51.538;6.728;2023-05-07T03:48:57;9.63;;;5.80;;
19084;SDS011;9675;51.538;6.728;2023-05-07T03:51:25;8.30;;;4.10;;
19084;SDS011;9675;51.538;6.728;2023-05-07T03:53:52;5.33;;;3.40;;
19084;SDS011;9675;51.538;6.728;2023-05-07T03:56:19;5.47;;;3.57;;
19084;SDS011;9675;51.538;6.728;2023-05-07T03:58:47;8.47;;;4.10;;
19084;SDS011;9675;51.538;6.728;2023-05-07T04:01:14;5.87;;;3.43;;
19084;SDS011;9675;51.538;6.728;2023-05-07T04:03:42;9.10;;;4.33;;
19084;SDS011;9675;51.538;6.728;2023-05-07T04:06:09;5.40;;;3.50;;
19084;SDS011;9675;51.538;6.728;2023-05-07T04:08:37;6.73;;;3.17;;
19084;SDS011;9675;51.538;6.728;2023-05-07T04:11:04;5.43;;;3.53;;
19084;SDS011;9675;51.538;6.728;2023-05-07T04:13:31;8.93;;;3.80;;
19084;SDS011;9675;51.538;6.728;2023-05-07T04:16:00;5.43;;;3.47;;
19084;SDS011;9675;51.538;6.728;2023-05-07T04:18:29;5.03;;;2.97;;
19084;SDS011;9675;51.538;6.728;2023-05-07T04:20:56;8.23;;;4.23;;
19084;SDS011;9675;51.538;6.728;2023-05-07T04:23:23;5.67;;;3.53;;
19084;SDS011;9675;51.538;6.728;2023-05-07T04:25:50;7.63;;;3.47;;
19084;SDS011;9675;51.538;6.728;2023-05-07T04:28:17;9.03;;;5.30;;
19084;SDS011;9675;51.538;6.728;2023-05-07T04:30:44;8.00;;;3.83;;
19084;SDS011;9675;51.538;6.728;2023-05-07T04:33:13;4.70;;;3.63;;
19084;SDS011;9675;51.538;6.728;2023-05-07T04:35:41;6.27;;;3.37;;
19084;SDS011;9675;51.538;6.728;2023-05-07T04:38:08;7.10;;;3.60;;
19084;SDS011;9675;51.538;6.728;2023-05-07T04:40:36;10.60;;;5.70;;
19084;SDS011;9675;51.538;6.728;2023-05-07T04:43:03;8.23;;;4.93;;
19084;SDS011;9675;51.538;6.728;2023-05-07T04:45:31;9.97;;;5.63;;
19084;SDS011;9675;51.538;6.728;2023-05-07T04:47:58;8.80;;;3.63;;
19084;SDS011;9675;51.538;6.728;2023-05-07T04:50:26;9.37;;;5.07;;
19084;SDS011;9675;51.538;6.728;2023-05-07T04:52:53;6.03;;;4.00;;
19084;SDS011;9675;51.538;6.728;2023-05-07T04:55:20;6.10;;;3.80;;
19084;SDS011;9675;51.538;6.728;2023-05-07T04:57:47;5.83;;;3.20;;
19084;SDS011;9675;51.538;6.728;2023-05-07T05:00:15;8.43;;;5.60;;
19084;SDS011;9675;51.538;6.728;2023-05-07T05:02:44;5.00;;;3.33;;
19084;SDS011;9675;51.538;6.728;2023-05-07T05:05:11;6.13;;;3.60;;
19084;SDS011;9675;51.538;6.728;2023-05-07T05:07:40;7.10;;;4.20;;
19084;SDS011;9675;51.538;6.728;2023-05-07T05:10:07;6.07;;;4.00;;
19084;SDS011;9675;51.538;6.728;2023-05-07T05:12:34;5.40;;;3.60;;
19084;SDS011;9675;51.538;6.728;2023-05-07T05:15:01;6.97;;;4.00;;
19084;SDS011;9675;51.538;6.728;2023-05-07T05:17:29;9.80;;;4.93;;
19084;SDS011;9675;51.538;6.728;2023-05-07T05:19:56;8.27;;;5.13;;
19084;SDS011;9675;51.538;6.728;2023-05-07T05:22:23;6.00;;;4.03;;
19084;SDS011;9675;51.538;6.728;2023-05-07T05:24:52;8.27;;;4.83;;
19084;SDS011;9675;51.538;6.728;2023-05-07T05:27:19;13.30;;;6.00;;
19084;SDS011;9675;51.538;6.728;2023-05-07T05:29:46;6.57;;;3.37;;
19084;SDS011;9675;51.538;6.728;2023-05-07T05:32:13;11.30;;;6.17;;
19084;SDS011;9675;51.538;6.728;2023-05-07T05:34:40;7.03;;;3.97;;
19084;SDS011;9675;51.538;6.728;2023-05-07T05:37:07;8.10;;;4.73;;
19084;SDS011;9675;51.538;6.728;2023-05-07T05:39:34;7.07;;;4.60;;
19084;SDS011;9675;51.538;6.728;2023-05-07T05:42:02;13.77;;;6.80;;
19084;SDS011;9675;51.538;6.728;2023-05-07T05:44:29;9.17;;;5.57;;
19084;SDS011;9675;51.538;6.728;2023-05-07T05:46:56;12.33;;;5.63;;
19084;SDS011;9675;51.538;6.728;2023-05-07T05:49:24;13.13;;;6.90;;
19084;SDS011;9675;51.538;6.728;2023-05-07T05:51:51;12.30;;;6.93;;
19084;SDS011;9675;51.538;6.728;2023-05-07T05:54:18;9.57;;;4.67;;
19084;SDS011;9675;51.538;6.728;2023-05-07T05:56:45;15.67;;;6.73;;
19084;SDS011;9675;51.538;6.728;2023-05-07T05:59:14;10.17;;;5.20;;
19084;SDS011;9675;51.538;6.728;2023-05-07T06:01:45;13.10;;;6.87;;
19084;SDS011;9675;51.538;6.728;2023-05-07T06:04:12;8.53;;;4.13;;
19084;SDS011;9675;51.538;6.728;2023-05-07T06:06:39;12.50;;;6.17;;
19084;SDS011;9675;51.538;6.728;2023-05-07T06:09:06;11.80;;;6.33;;
19084;SDS011;9675;51.538;6.728;2023-05-07T06:11:33;8.60;;;5.43;;
19084;SDS011;9675;51.538;6.728;2023-05-07T06:14:00;11.00;;;6.23;;
19084;SDS011;9675;51.538;6.728;2023-05-07T06:16:28;16.17;;;5.77;;
19084;SDS011;9675;51.538;6.728;2023-05-07T06:18:58;7.77;;;4.40;;
19084;SDS011;9675;51.538;6.728;2023-05-07T06:21:26;8.47;;;4.57;;
19084;SDS011;9675;51.538;6.728;2023-05-07T06:23:53;11.73;;;5.33;;
19084;SDS011;9675;51.538;6.728;2023-05-07T06:26:20;8.37;;;4.70;;
19084;SDS011;9675;51.538;6.728;2023-05-07T06:28:47;7.40;;;4.47;;
19084;SDS011;9675;51.538;6.728;2023-05-07T06:31:15;6.80;;;4.03;;
19084;SDS011;9675;51.538;6.728;2023-05-07T06:33:47;4.87;;;2.97;;
19084;SDS011;9675;51.538;6.728;2023-05-07T06:36:14;5.97;;;3.20;;
19084;SDS011;9675;51.538;6.728;2023-05-07T06:38:41;5.93;;;3.40;;
19084;SDS011;9675;51.538;6.728;2023-05-07T06:41:09;5.63;;;3.13;;
19084;SDS011;9675;51.538;6.728;2023-05-07T06:43:36;6.83;;;3.60;;
19084;SDS011;9675;51.538;6.728;2023-05-07T06:46:03;4.90;;;2.57;;
19084;SDS011;9675;51.538;6.728;2023-05-07T06:48:30;5.83;;;3.73;;
19084;SDS011;9675;51.538;6.728;2023-05-07T06:50:59;7.67;;;3.73;;
19084;SDS011;9675;51.538;6.728;2023-05-07T06:53:26;8.60;;;3.10;;
19084;SDS011;9675;51.538;6.728;2023-05-07T06:55:54;5.77;;;3.20;;
19084;SDS011;9675;51.538;6.728;2023-05-07T06:58:21;5.73;;;3.23;;
19084;SDS011;9675;51.538;6.728;2023-05-07T07:00:48;4.00;;;2.70;;
19084;SDS011;9675;51.538;6.728;2023-05-07T07:03:15;8.03;;;3.87;;
19084;SDS011;9675;51.538;6.728;2023-05-07T07:05:42;5.13;;;3.50;;
19084;SDS011;9675;51.538;6.728;2023-05-07T07:08:11;7.47;;;3.53;;
19084;SDS011;9675;51.538;6.728;2023-05-07T07:10:38;3.10;;;2.20;;
19084;SDS011;9675;51.538;6.728;2023-05-07T07:13:05;6.00;;;2.80;;
19084;SDS011;9675;51.538;6.728;2023-05-07T07:15:32;4.37;;;2.67;;
19084;SDS011;9675;51.538;6.728;2023-05-07T07:17:59;11.70;;;3.43;;
19084;SDS011;9675;51.538;6.728;2023-05-07T07:20:26;4.73;;;2.53;;
19084;SDS011;9675;51.538;6.728;2023-05-07T07:22:53;3.30;;;2.23;;
19084;SDS011;9675;51.538;6.728;2023-05-07T07:25:22;9.73;;;3.00;;
19084;SDS011;9675;51.538;6.728;2023-05-07T07:27:49;3.90;;;1.97;;
19084;SDS011;9675;51.538;6.728;2023-05-07T07:30:16;3.80;;;2.40;;
19084;SDS011;9675;51.538;6.728;2023-05-07T07:32:44;3.53;;;2.20;;
19084;SDS011;9675;51.538;6.728;2023-05-07T07:35:11;5.60;;;2.97;;
19084;SDS011;9675;51.538;6.728;2023-05-07T07:37:38;3.30;;;1.87;;
19084;SDS011;9675;51.538;6.728;2023-05-07T07:40:05;4.77;;;1.60;;
19084;SDS011;9675;51.538;6.728;2023-05-07T07:42:35;4.30;;;2.00;;
19084;SDS011;9675;51.538;6.728;2023-05-07T07:45:02;6.30;;;2.07;;
19084;SDS011;9675;51.538;6.728;2023-05-07T07:47:31;3.17;;;1.73;;
19084;SDS011;9675;51.538;6.728;2023-05-07T07:49:58;3.13;;;2.07;;
19084;SDS011;9675;51.538;6.728;2023-05-07T07:52:25;5.50;;;1.77;;
19084;SDS011;9675;51.538;6.728;2023-05-07T07:54:52;3.07;;;1.60;;
19084;SDS011;9675;51.538;6.728;2023-05-07T07:57:19;5.13;;;2.07;;
19084;SDS011;9675;51.538;6.728;2023-05-07T07:59:47;2.80;;;1.87;;
19084;SDS011;9675;51.538;6.728;2023-05-07T08:02:15;5.70;;;2.50;;
19084;SDS011;9675;51.538;6.728;2023-05-07T08:04:42;1.90;;;1.57;;
19084;SDS011;9675;51.538;6.728;2023-05-07T08:07:10;3.53;;;1.70;;
19084;SDS011;9675;51.538;6.728;2023-05-07T08:09:37;4.40;;;2.00;;
19084;SDS011;9675;51.538;6.728;2023-05-07T08:12:05;4.23;;;2.43;;
19084;SDS011;9675;51.538;6.728;2023-05-07T08:14:33;1.67;;;1.10;;
19084;SDS011;9675;51.538;6.728;2023-05-07T08:17:02;2.67;;;1.70;;
19084;SDS011;9675;51.538;6.728;2023-05-07T08:19:30;3.47;;;2.20;;
19084;SDS011;9675;51.538;6.728;2023-05-07T08:21:57;4.47;;;1.20;;
19084;SDS011;9675;51.538;6.728;2023-05-07T08:24:24;4.83;;;1.43;;
19084;SDS011;9675;51.538;6.728;2023-05-07T08:26:51;2.70;;;1.50;;
19084;SDS011;9675;51.538;6.728;2023-05-07T08:29:18;1.97;;;1.40;;
19084;SDS011;9675;51.538;6.728;2023-05-07T08:31:45;2.90;;;1.40;;
19084;SDS011;9675;51.538;6.728;2023-05-07T08:34:13;3.47;;;1.57;;
19084;SDS011;9675;51.538;6.728;2023-05-07T08:36:40;3.40;;;1.70;;
19084;SDS011;9675;51.538;6.728;2023-05-07T08:39:07;4.17;;;1.70;;
19084;SDS011;9675;51.538;6.728;2023-05-07T08:41:35;2.97;;;1.43;;
19084;SDS011;9675;51.538;6.728;2023-05-07T08:44:03;3.13;;;1.50;;
19084;SDS011;9675;51.538;6.728;2023-05-07T08:46:37;2.67;;;1.40;;
19084;SDS011;9675;51.538;6.728;2023-05-07T08:49:05;2.17;;;1.33;;
19084;SDS011;9675;51.538;6.728;2023-05-07T08:51:35;1.47;;;1.10;;
19084;SDS011;9675;51.538;6.728;2023-05-07T08:54:02;4.60;;;1.93;;
19084;SDS011;9675;51.538;6.728;2023-05-07T08:56:31;5.93;;;1.73;;
19084;SDS011;9675;51.538;6.728;2023-05-07T08:58:58;5.30;;;1.33;;
19084;SDS011;9675;51.538;6.728;2023-05-07T09:01:25;4.10;;;1.50;;
19084;SDS011;9675;51.538;6.728;2023-05-07T09:03:53;4.57;;;1.33;;
19084;SDS011;9675;51.538;6.728;2023-05-07T09:06:20;2.27;;;1.40;;
19084;SDS011;9675;51.538;6.728;2023-05-07T09:08:53;2.97;;;1.57;;
19084;SDS011;9675;51.538;6.728;2023-05-07T09:11:21;8.17;;;1.77;;
19084;SDS011;9675;51.538;6.728;2023-05-07T09:13:48;1.43;;;1.00;;
19084;SDS011;9675;51.538;6.728;2023-05-07T09:16:20;1.77;;;1.03;;
19084;SDS011;9675;51.538;6.728;2023-05-07T09:18:50;2.30;;;1.30;;
19084;SDS011;9675;51.538;6.728;2023-05-07T09:21:19;1.77;;;1.17;;
19084;SDS011;9675;51.538;6.728;2023-05-07T09:23:48;1.73;;;1.20;;
19084;SDS011;9675;51.538;6.728;2023-05-07T09:26:18;2.00;;;1.37;;
19084;SDS011;9675;51.538;6.728;2023-05-07T09:28:47;2.23;;;1.40;;
19084;SDS011;9675;51.538;6.728;2023-05-07T09:31:14;2.60;;;1.20;;
19084;SDS011;9675;51.538;6.728;2023-05-07T09:33:41;5.57;;;1.67;;
19084;SDS011;9675;51.538;6.728;2023-05-07T09:36:09;1.97;;;0.97;;
19084;SDS011;9675;51.538;6.728;2023-05-07T09:38:36;1.50;;;1.07;;
19084;SDS011;9675;51.538;6.728;2023-05-07T09:41:04;3.10;;;1.20;;
19084;SDS011;9675;51.538;6.728;2023-05-07T09:43:35;2.10;;;1.13;;
19084;SDS011;9675;51.538;6.728;2023-05-07T09:46:06;4.97;;;1.63;;
19084;SDS011;9675;51.538;6.728;2023-05-07T09:48:38;2.90;;;1.13;;
19084;SDS011;9675;51.538;6.728;2023-05-07T09:51:09;3.63;;;1.40;;
19084;SDS011;9675;51.538;6.728;2023-05-07T09:53:47;3.63;;;1.23;;
19084;SDS011;9675;51.538;6.728;2023-05-07T09:56:16;2.63;;;0.97;;
19084;SDS011;9675;51.538;6.728;2023-05-07T09:58:47;7.87;;;4.07;;
19084;SDS011;9675;51.538;6.728;2023-05-07T10:01:19;3.17;;;1.33;;
19084;SDS011;9675;51.538;6.728;2023-05-07T10:03:48;2.93;;;1.07;;
19084;SDS011;9675;51.538;6.728;2023-05-07T10:06:17;6.93;;;1.20;;
19084;SDS011;9675;51.538;6.728;2023-05-07T10:08:46;1.80;;;1.17;;
19084;SDS011;9675;51.538;6.728;2023-05-07T10:11:14;2.80;;;1.73;;
19084;SDS011;9675;51.538;6.728;2023-05-07T10:13:42;4.50;;;1.70;;
19084;SDS011;9675;51.538;6.728;2023-05-07T10:16:11;7.30;;;1.80;;
19084;SDS011;9675;51.538;6.728;2023-05-07T10:18:38;2.77;;;1.17;;
19084;SDS011;9675;51.538;6.728;2023-05-07T10:21:08;5.20;;;1.50;;
19084;SDS011;9675;51.538;6.728;2023-05-07T10:23:43;4.53;;;2.00;;
19084;SDS011;9675;51.538;6.728;2023-05-07T10:26:15;1.97;;;1.33;;
19084;SDS011;9675;51.538;6.728;2023-05-07T10:28:47;3.80;;;1.50;;
19084;SDS011;9675;51.538;6.728;2023-05-07T10:31:27;3.70;;;1.50;;
19084;SDS011;9675;51.538;6.728;2023-05-07T10:34:15;3.20;;;1.40;;
19084;SDS011;9675;51.538;6.728;2023-05-07T10:36:48;3.53;;;1.00;;
19084;SDS011;9675;51.538;6.728;2023-05-07T10:39:16;1.20;;;1.10;;
19084;SDS011;9675;51.538;6.728;2023-05-07T10:41:45;3.07;;;1.20;;
19084;SDS011;9675;51.538;6.728;2023-05-07T10:44:15;3.30;;;1.47;;
19084;SDS011;9675;51.538;6.728;2023-05-07T10:47:07;1.13;;;0.97;;
19084;SDS011;9675;51.538;6.728;2023-05-07T10:49:35;0.90;;;0.80;;
19084;SDS011;9675;51.538;6.728;2023-05-07T10:52:24;2.20;;;1.00;;
19084;SDS011;9675;51.538;6.728;2023-05-07T10:57:47;1.27;;;1.03;;
19084;SDS011;9675;51.538;6.728;2023-05-07T11:03:10;1.53;;;1.00;;
19084;SDS011;9675;51.538;6.728;2023-05-07T11:05:37;2.67;;;0.90;;
19084;SDS011;9675;51.538;6.728;2023-05-07T11:08:05;2.70;;;1.33;;
19084;SDS011;9675;51.538;6.728;2023-05-07T11:10:48;1.70;;;0.83;;
19084;SDS011;9675;51.538;6.728;2023-05-07T11:13:17;5.73;;;1.20;;
19084;SDS011;9675;51.538;6.728;2023-05-07T11:16:06;3.13;;;0.83;;
19084;SDS011;9675;51.538;6.728;2023-05-07T11:18:47;2.17;;;0.90;;
19084;SDS011;9675;51.538;6.728;2023-05-07T11:21:31;1.00;;;0.67;;
19084;SDS011;9675;51.538;6.728;2023-05-07T11:24:00;0.87;;;0.70;;
19084;SDS011;9675;51.538;6.728;2023-05-07T11:26:29;1.83;;;0.60;;
19084;SDS011;9675;51.538;6.728;2023-05-07T11:29:10;1.30;;;0.80;;
19084;SDS011;9675;51.538;6.728;2023-05-07T11:31:39;2.00;;;0.67;;
19084;SDS011;9675;51.538;6.728;2023-05-07T11:34:06;2.90;;;0.73;;
19084;SDS011;9675;51.538;6.728;2023-05-07T11:36:34;1.80;;;0.83;;
19084;SDS011;9675;51.538;6.728;2023-05-07T11:39:22;5.73;;;1.10;;
19084;SDS011;9675;51.538;6.728;2023-05-07T11:41:51;1.90;;;0.57;;
19084;SDS011;9675;51.538;6.728;2023-05-07T11:44:18;3.57;;;1.03;;
19084;SDS011;9675;51.538;6.728;2023-05-07T11:46:46;1.30;;;0.60;;
19084;SDS011;9675;51.538;6.728;2023-05-07T11:49:14;1.77;;;0.80;;
19084;SDS011;9675;51.538;6.728;2023-05-07T11:51:42;0.70;;;0.40;;
19084;SDS011;9675;51.538;6.728;2023-05-07T11:54:11;1.10;;;0.60;;
19084;SDS011;9675;51.538;6.728;2023-05-07T11:56:43;1.80;;;0.60;;
19084;SDS011;9675;51.538;6.728;2023-05-07T11:59:12;1.17;;;0.53;;
19084;SDS011;9675;51.538;6.728;2023-05-07T12:01:46;1.37;;;0.70;;
19084;SDS011;9675;51.538;6.728;2023-05-07T12:04:14;1.03;;;0.70;;
19084;SDS011;9675;51.538;6.728;2023-05-07T12:06:46;4.63;;;0.70;;
19084;SDS011;9675;51.538;6.728;2023-05-07T12:09:13;4.20;;;1.10;;
19084;SDS011;9675;51.538;6.728;2023-05-07T12:11:40;1.40;;;0.73;;
19084;SDS011;9675;51.538;6.728;2023-05-07T12:14:12;2.03;;;1.03;;
19084;SDS011;9675;51.538;6.728;2023-05-07T12:16:40;1.27;;;0.90;;
19084;SDS011;9675;51.538;6.728;2023-05-07T12:19:10;1.47;;;0.87;;
19084;SDS011;9675;51.538;6.728;2023-05-07T12:21:38;2.23;;;0.97;;
19084;SDS011;9675;51.538;6.728;2023-05-07T12:24:06;1.70;;;0.80;;
19084;SDS011;9675;51.538;6.728;2023-05-07T12:26:37;1.43;;;0.97;;
19084;SDS011;9675;51.538;6.728;2023-05-07T12:29:05;2.13;;;0.80;;
19084;SDS011;9675;51.538;6.728;2023-05-07T12:31:32;3.90;;;0.80;;
19084;SDS011;9675;51.538;6.728;2023-05-07T12:33:59;0.80;;;0.80;;
19084;SDS011;9675;51.538;6.728;2023-05-07T12:36:35;1.17;;;0.90;;
19084;SDS011;9675;51.538;6.728;2023-05-07T12:39:04;1.00;;;0.77;;
19084;SDS011;9675;51.538;6.728;2023-05-07T12:41:34;3.17;;;0.80;;
19084;SDS011;9675;51.538;6.728;2023-05-07T12:44:17;4.27;;;0.80;;
19084;SDS011;9675;51.538;6.728;2023-05-07T12:46:46;1.80;;;0.70;;
19084;SDS011;9675;51.538;6.728;2023-05-07T12:49:13;4.70;;;1.10;;
19084;SDS011;9675;51.538;6.728;2023-05-07T12:51:41;2.87;;;1.87;;
19084;SDS011;9675;51.538;6.728;2023-05-07T12:54:08;2.37;;;1.33;;
19084;SDS011;9675;51.538;6.728;2023-05-07T12:56:35;2.97;;;1.47;;
19084;SDS011;9675;51.538;6.728;2023-05-07T12:59:04;7.13;;;1.63;;
19084;SDS011;9675;51.538;6.728;2023-05-07T13:01:31;3.87;;;1.30;;
19084;SDS011;9675;51.538;6.728;2023-05-07T13:04:00;3.80;;;1.53;;
19084;SDS011;9675;51.538;6.728;2023-05-07T13:06:30;1.97;;;1.40;;
19084;SDS011;9675;51.538;6.728;2023-05-07T13:08:59;3.90;;;2.00;;
19084;SDS011;9675;51.538;6.728;2023-05-07T13:11:25;4.77;;;1.53;;
19084;SDS011;9675;51.538;6.728;2023-05-07T13:13:52;2.83;;;1.50;;
19084;SDS011;9675;51.538;6.728;2023-05-07T13:16:19;3.37;;;1.50;;
19084;SDS011;9675;51.538;6.728;2023-05-07T13:18:46;3.23;;;1.63;;
19084;SDS011;9675;51.538;6.728;2023-05-07T13:21:13;3.50;;;1.30;;
19084;SDS011;9675;51.538;6.728;2023-05-07T13:23:40;2.00;;;1.20;;
19084;SDS011;9675;51.538;6.728;2023-05-07T13:26:09;3.27;;;1.40;;
19084;SDS011;9675;51.538;6.728;2023-05-07T13:28:36;5.07;;;1.47;;
19084;SDS011;9675;51.538;6.728;2023-05-07T13:31:03;1.53;;;1.10;;
19084;SDS011;9675;51.538;6.728;2023-05-07T13:33:30;2.53;;;1.40;;
19084;SDS011;9675;51.538;6.728;2023-05-07T13:35:57;7.00;;;1.43;;
19084;SDS011;9675;51.538;6.728;2023-05-07T13:38:25;3.77;;;1.73;;
19084;SDS011;9675;51.538;6.728;2023-05-07T13:40:52;1.73;;;1.53;;
19084;SDS011;9675;51.538;6.728;2023-05-07T13:43:21;4.40;;;2.03;;
19084;SDS011;9675;51.538;6.728;2023-05-07T13:45:48;1.60;;;1.30;;
19084;SDS011;9675;51.538;6.728;2023-05-07T13:48:15;3.23;;;1.87;;
19084;SDS011;9675;51.538;6.728;2023-05-07T13:50:42;7.13;;;3.57;;
19084;SDS011;9675;51.538;6.728;2023-05-07T13:53:09;4.67;;;2.10;;
19084;SDS011;9675;51.538;6.728;2023-05-07T13:55:36;3.63;;;2.17;;
19084;SDS011;9675;51.538;6.728;2023-05-07T13:58:03;4.67;;;2.13;;
19084;SDS011;9675;51.538;6.728;2023-05-07T14:00:31;4.53;;;2.27;;
19084;SDS011;9675;51.538;6.728;2023-05-07T14:02:58;4.87;;;2.53;;
19084;SDS011;9675;51.538;6.728;2023-05-07T14:05:25;3.20;;;2.23;;
19084;SDS011;9675;51.538;6.728;2023-05-07T14:07:53;4.30;;;2.50;;
19084;SDS011;9675;51.538;6.728;2023-05-07T14:10:20;3.70;;;2.40;;
19084;SDS011;9675;51.538;6.728;2023-05-07T14:12:47;5.93;;;3.23;;
19084;SDS011;9675;51.538;6.728;2023-05-07T14:15:14;4.93;;;2.23;;
19084;SDS011;9675;51.538;6.728;2023-05-07T14:17:43;6.33;;;2.40;;
19084;SDS011;9675;51.538;6.728;2023-05-07T14:20:12;8.17;;;3.93;;
19084;SDS011;9675;51.538;6.728;2023-05-07T14:22:39;5.37;;;3.20;;
19084;SDS011;9675;51.538;6.728;2023-05-07T14:25:06;5.27;;;3.10;;
19084;SDS011;9675;51.538;6.728;2023-05-07T14:27:35;6.07;;;2.77;;
19084;SDS011;9675;51.538;6.728;2023-05-07T14:30:02;5.93;;;3.23;;
19084;SDS011;9675;51.538;6.728;2023-05-07T14:32:30;46.27;;;22.90;;
19084;SDS011;9675;51.538;6.728;2023-05-07T14:34:59;12.70;;;7.20;;
19084;SDS011;9675;51.538;6.728;2023-05-07T14:37:26;15.20;;;9.00;;
19084;SDS011;9675;51.538;6.728;2023-05-07T14:39:53;12.63;;;7.77;;
19084;SDS011;9675;51.538;6.728;2023-05-07T14:42:21;37.87;;;19.03;;
19084;SDS011;9675;51.538;6.728;2023-05-07T14:44:47;21.20;;;10.87;;
19084;SDS011;9675;51.538;6.728;2023-05-07T14:47:15;8.30;;;4.73;;
19084;SDS011;9675;51.538;6.728;2023-05-07T14:49:42;10.47;;;4.77;;
19084;SDS011;9675;51.538;6.728;2023-05-07T14:52:10;7.80;;;4.23;;
19084;SDS011;9675;51.538;6.728;2023-05-07T14:54:37;6.07;;;3.90;;
19084;SDS011;9675;51.538;6.728;2023-05-07T14:57:04;7.37;;;3.83;;
19084;SDS011;9675;51.538;6.728;2023-05-07T14:59:32;9.90;;;4.60;;
19084;SDS011;9675;51.538;6.728;2023-05-07T15:02:00;9.63;;;4.87;;
19084;SDS011;9675;51.538;6.728;2023-05-07T15:04:27;10.27;;;4.90;;
19084;SDS011;9675;51.538;6.728;2023-05-07T15:06:54;10.93;;;5.57;;
19084;SDS011;9675;51.538;6.728;2023-05-07T15:09:22;7.63;;;4.30;;
19084;SDS011;9675;51.538;6.728;2023-05-07T15:11:49;6.77;;;3.80;;
19084;SDS011;9675;51.538;6.728;2023-05-07T15:14:17;7.77;;;3.87;;